33MI weather

Spectrum Health Reed City Hospital Heliport
Reed City, Michigan, United States

Public forecast

Using degrees Fahrenheit for public forecast. Weather courtesy of forecast.io.

Closest aviation weather report (METAR) to Spectrum Health Reed City Hospital Heliport

Closest report is Roben Hood Airport, 9.4 nm (17.4 km) S. Retrieved 2019/10/14 14:35 UTC (0 seconds ago):

KRQB 141435Z AUTO 29006KT 10SM SCT019 BKN026 OVC036 06/02 A2999 RMK AO2 T00600023

Closest aviation forecast (TAF) to Spectrum Health Reed City Hospital Heliport

Closest forecast is Manistee Co Blacker Airport, 39.3 nm (72.7 km) NW. Retrieved 2019/10/14 12:21 UTC (2 hours ago):

TAF KMBL 141120Z 1412/1512 28011G19KT P6SM FEW025 BKN035 TEMPO 1412/1416 BKN025 FM141800 26010G19KT P6SM SCT040 FM142200 25009KT P6SM FEW050 FM150200 VRB03KT P6SM FEW250 FM151100 15005KT P6SM BKN150